Time;durP1;ratioP1;P1;durP2;ratioP2;P2;SDS_P1;SDS_P2;PMS_P1;PMS_P2;Temp;Humidity;BMP_temperature;BMP_pressure;BME280_temperature;BME280_humidity;BME280_pressure;Samples;Min_cycle;Max_cycle;Signal;HPM_P1;HPM_P2
2022/03/20 00:01:45;;;;;;;;;4.00;4.00;;;;;12.61;29.80;101961.22;6312717;22;45384;-81
2022/03/20 00:04:11;;;;;;;;;3.00;2.33;;;;;12.36;29.87;101950.75;6284325;22;45325;-81
2022/03/20 00:06:36;;;;;;;;;3.00;3.00;;;;;12.31;29.74;101953.31;6286005;22;48086;-81
2022/03/20 00:09:01;;;;;;;;;4.00;3.00;;;;;12.28;29.93;101944.31;6285912;22;45591;-81
2022/03/20 00:11:30;;;;;;;;;2.33;2.33;;;;;12.19;29.71;101940.53;6311757;22;45652;-81
2022/03/20 00:13:55;;;;;;;;;3.00;3.00;;;;;12.16;29.94;101934.25;6285438;22;45625;-81
2022/03/20 00:16:23;;;;;;;;;6.67;4.00;;;;;12.21;30.46;101936.16;6311524;22;47532;-82
2022/03/20 00:18:48;;;;;;;;;3.00;3.00;;;;;12.14;29.79;101933.28;6285511;22;45311;-83
2022/03/20 00:21:14;;;;;;;;;3.00;3.00;;;;;12.10;29.68;101936.72;6314402;22;45849;-83
2022/03/20 00:23:39;;;;;;;;;3.33;3.33;;;;;12.10;30.06;101944.72;6315684;22;45352;-83
2022/03/20 00:26:06;;;;;;;;;3.00;3.00;;;;;12.09;29.87;101948.28;6287662;22;46905;-83
2022/03/20 00:28:50;;;;;;;;;4.00;4.00;;;;;12.24;30.12;101934.44;6311345;22;45392;-83
2022/03/20 00:31:16;;;;;;;;;3.00;3.00;;;;;12.00;30.26;101932.94;6287225;22;45452;-84
2022/03/20 00:33:43;;;;;;;;;3.00;3.00;;;;;12.09;30.37;101930.50;6288015;22;44811;-84
2022/03/20 00:36:08;;;;;;;;;3.67;2.33;;;;;11.79;30.05;101911.88;6315395;22;46762;-83
2022/03/20 00:38:34;;;;;;;;;4.00;2.00;;;;;11.82;30.38;101918.19;6315529;22;45744;-83
2022/03/20 00:40:59;;;;;;;;;8.00;6.00;;;;;11.82;30.26;101907.53;6288390;22;45314;-83
2022/03/20 00:43:25;;;;;;;;;3.00;3.00;;;;;11.92;30.84;101927.38;6314328;22;45452;-83
2022/03/20 00:45:51;;;;;;;;;3.00;3.00;;;;;11.92;31.18;101934.50;6287504;22;46930;-82
2022/03/20 00:48:16;;;;;;;;;4.00;4.00;;;;;11.79;31.33;101928.75;6313804;22;45364;-82
2022/03/20 00:50:41;;;;;;;;;3.00;3.00;;;;;11.72;31.28;101931.22;6286647;22;45813;-83
2022/03/20 00:53:07;;;;;;;;;2.33;2.33;;;;;11.69;31.62;101941.78;6286062;22;45382;-83
2022/03/20 00:55:33;;;;;;;;;3.00;3.00;;;;;11.61;31.88;101937.16;6286102;22;47023;-82
2022/03/20 00:58:42;;;;;;;;;4.00;3.00;;;;;11.74;31.82;101940.16;6314766;22;45371;-82
2022/03/20 01:01:10;;;;;;;;;5.33;2.00;;;;;11.46;31.91;101933.13;6289060;22;45413;-82
2022/03/20 01:03:38;;;;;;;;;2.00;2.00;;;;;11.41;32.01;101932.97;6288899;22;45417;-83
2022/03/20 01:06:07;;;;;;;;;3.00;1.00;;;;;11.42;32.23;101934.78;6287726;22;45310;-82
2022/03/20 01:08:34;;;;;;;;;3.00;3.00;;;;;11.39;32.38;101921.38;6289869;22;45449;-82
2022/03/20 01:11:00;;;;;;;;;4.00;2.00;;;;;11.35;32.19;101930.13;6316052;22;45574;-80
2022/03/20 01:13:26;;;;;;;;;6.00;3.00;;;;;11.33;32.33;101921.19;6317588;22;45355;-80
2022/03/20 01:15:52;;;;;;;;;1.67;1.67;;;;;11.33;32.87;101927.44;6315169;22;46634;-81
2022/03/20 01:18:17;;;;;;;;;3.00;3.00;;;;;11.32;32.87;101914.06;6315053;22;45378;-82
2022/03/20 01:20:42;;;;;;;;;2.00;2.00;;;;;11.29;32.73;101912.22;6288702;22;45717;-82
2022/03/20 01:23:08;;;;;;;;;2.00;2.00;;;;;11.28;33.07;101910.41;6317149;22;45248;-81
2022/03/20 01:29:02;;;;;;;;;2.33;2.33;;;;;11.20;33.00;101899.53;6310912;22;45785;-82
2022/03/20 01:31:28;;;;;;;;;2.00;2.00;;;;;11.26;33.08;101905.91;6289591;22;45404;-81
2022/03/20 01:33:55;;;;;;;;;5.67;3.00;;;;;11.17;33.04;101895.88;6318138;22;45367;-81
2022/03/20 01:36:21;;;;;;;;;3.00;1.33;;;;;11.15;33.27;101898.50;6317033;22;45844;-82
2022/03/20 01:38:47;;;;;;;;;4.67;3.00;;;;;11.13;33.21;101899.28;6289042;22;45354;-82
2022/03/20 01:44:35;;;;;;;;;1.67;1.67;;;;;11.12;33.41;101902.81;6316581;22;44731;-82
2022/03/20 01:47:02;;;;;;;;;2.00;1.67;;;;;11.04;33.88;101902.56;6316495;22;46451;-82
2022/03/20 01:49:28;;;;;;;;;2.67;2.67;;;;;10.94;33.86;101896.06;6318278;22;45309;-81
2022/03/20 01:54:40;;;;;;;;;1.67;1.67;;;;;10.84;34.05;101899.28;6319445;22;45360;-80
2022/03/20 01:57:09;;;;;;;;;2.33;2.33;;;;;10.85;34.36;101890.47;6318509;22;46204;-81
2022/03/20 01:59:34;;;;;;;;;3.33;2.67;;;;;10.70;34.31;101884.66;6289780;22;45388;-81
2022/03/20 02:02:02;;;;;;;;;3.00;2.00;;;;;10.73;34.61;101892.75;6319406;22;45321;-81
2022/03/20 02:04:27;;;;;;;;;3.00;3.00;;;;;10.67;34.42;101890.78;6317276;22;45456;-80
2022/03/20 02:06:54;;;;;;;;;3.00;3.00;;;;;10.80;34.91;101881.41;6314781;22;45344;-80
2022/03/20 02:09:19;;;;;;;;;3.67;2.67;;;;;10.55;35.13;101882.41;6286439;22;45408;-80
2022/03/20 02:11:47;;;;;;;;;3.00;3.00;;;;;10.54;35.09;101884.19;6316072;22;45412;-82
2022/03/20 02:14:13;;;;;;;;;2.67;2.67;;;;;10.43;35.53;101868.72;6314849;22;45430;-81
2022/03/20 02:16:39;;;;;;;;;2.00;2.00;;;;;10.36;35.69;101862.28;6316080;22;45419;-81
2022/03/20 02:19:13;;;;;;;;;2.00;2.00;;;;;10.42;35.46;101859.81;6287889;22;45701;-81
2022/03/20 02:21:43;;;;;;;;;4.33;2.00;;;;;10.33;35.20;101864.84;6287323;22;45358;-82
2022/03/20 02:24:48;;;;;;;;;2.00;2.00;;;;;10.53;35.69;101868.16;6289263;22;45477;-82
2022/03/20 02:27:20;;;;;;;;;2.00;2.00;;;;;10.42;35.52;101851.84;6162421;23;46741;-82
2022/03/20 02:30:03;;;;;;;;;2.00;2.00;;;;;10.55;35.84;101858.47;6188741;23;45937;-81
2022/03/20 02:32:31;;;;;;;;;2.00;2.00;;;;;10.43;36.21;101850.09;6162483;23;45762;-81
2022/03/20 02:35:07;;;;;;;;;3.67;3.67;;;;;10.41;35.98;101842.06;6163399;23;45314;-80
2022/03/20 02:37:34;;;;;;;;;6.33;6.00;;;;;10.33;36.11;101832.94;6161870;23;46718;-81
2022/03/20 02:40:02;;;;;;;;;2.00;1.00;;;;;10.41;36.05;101842.06;6187391;23;45527;-82
2022/03/20 02:42:29;;;;;;;;;3.00;3.00;;;;;10.29;36.34;101837.22;6161965;23;45360;-81
2022/03/20 02:45:11;;;;;;;;;2.00;2.00;;;;;10.45;36.38;101837.75;6162382;23;44912;-81
2022/03/20 02:47:42;;;;;;;;;6.33;3.33;;;;;10.31;37.08;101843.50;6161493;23;46043;-83
2022/03/20 02:50:25;;;;;;;;;2.00;2.00;;;;;10.37;36.87;101837.50;6187696;23;45382;-82
2022/03/20 02:52:58;;;;;;;;;5.00;5.00;;;;;10.19;36.98;101828.03;6187048;23;45413;-81
2022/03/20 02:55:28;;;;;;;;;2.00;2.00;;;;;10.28;36.95;101831.84;6185974;23;45445;-81
2022/03/20 02:57:56;;;;;;;;;2.00;1.67;;;;;10.15;36.93;101818.13;6186807;23;46664;-81
2022/03/20 03:00:25;;;;;;;;;6.00;3.00;;;;;10.24;37.22;101830.84;6208640;22;45430;-81
2022/03/20 03:02:52;;;;;;;;;6.00;4.33;;;;;10.10;37.43;101817.09;6285055;22;45396;-81
2022/03/20 03:05:19;;;;;;;;;3.00;3.00;;;;;10.17;37.56;101828.84;6285520;22;45321;-81
2022/03/20 03:13:18;;;;;;;;;4.67;4.67;;;;;10.10;37.55;101813.53;6311678;22;45408;-81
2022/03/20 03:15:44;;;;;;;;;3.33;3.33;;;;;10.05;38.14;101800.09;6284262;22;45341;-82
2022/03/20 03:18:10;;;;;;;;;2.67;2.00;;;;;10.02;39.20;101811.53;6313005;22;45344;-81
2022/03/20 03:20:35;;;;;;;;;1.00;1.00;;;;;9.89;38.86;101813.72;6314350;22;45275;-81
2022/03/20 03:23:02;;;;;;;;;2.67;2.67;;;;;9.79;38.98;101793.91;6288802;22;45354;-82
2022/03/20 03:25:27;;;;;;;;;5.00;5.00;;;;;9.73;39.15;101804.31;6292435;22;45294;-81
2022/03/20 03:27:53;;;;;;;;;5.00;5.00;;;;;9.67;39.79;101794.38;6292408;22;47017;-81
2022/03/20 03:30:19;;;;;;;;;3.00;3.00;;;;;9.66;39.67;101799.66;6292770;22;45375;-81
2022/03/20 03:32:47;;;;;;;;;5.00;5.00;;;;;9.54;39.50;101793.06;6321900;22;45693;-81
2022/03/20 03:37:59;;;;;;;;;5.00;5.00;;;;;9.63;39.27;101808.38;6315298;22;45511;-81
2022/03/20 03:40:24;;;;;;;;;8.00;5.00;;;;;9.63;39.48;101805.75;6286296;22;45997;-81
2022/03/20 03:42:50;;;;;;;;;6.00;4.33;;;;;9.61;39.85;101800.41;6313976;22;45388;-82
2022/03/20 03:45:16;;;;;;;;;7.33;6.00;;;;;9.56;40.25;101799.31;6314000;22;45863;-82
2022/03/20 03:47:42;;;;;;;;;5.00;5.00;;;;;9.47;40.38;101798.09;6313292;22;45668;-82
2022/03/20 03:50:08;;;;;;;;;6.67;6.67;;;;;9.49;40.71;101799.03;6285104;22;45275;-83
2022/03/20 03:52:34;;;;;;;;;5.00;3.00;;;;;9.40;40.78;101807.59;6285245;22;45694;-82
2022/03/20 03:54:59;;;;;;;;;4.33;2.33;;;;;9.33;41.29;101800.25;6310872;22;45680;-82
2022/03/20 03:57:24;;;;;;;;;6.00;6.00;;;;;9.35;41.14;101801.19;6285617;22;47517;-82
2022/03/20 03:59:50;;;;;;;;;5.00;5.00;;;;;9.36;41.92;101806.56;6311458;22;45638;-82
2022/03/20 04:02:22;;;;;;;;;7.00;6.00;;;;;9.45;41.72;101797.13;6285789;22;45567;-82
2022/03/20 04:04:48;;;;;;;;;6.00;6.00;;;;;9.25;41.97;101802.66;6314092;22;45393;-82
2022/03/20 04:07:18;;;;;;;;;7.00;6.67;;;;;9.31;41.75;101799.28;6313226;22;45377;-82
2022/03/20 04:09:48;;;;;;;;;5.00;5.00;;;;;9.28;42.35;101783.25;6287169;22;45439;-82
2022/03/20 04:12:14;;;;;;;;;5.67;5.67;;;;;9.19;41.97;101791.81;6317337;22;45444;-81
2022/03/20 04:14:40;;;;;;;;;5.33;5.33;;;;;9.18;42.56;101788.22;6288799;22;45275;-82
2022/03/20 04:17:06;;;;;;;;;5.33;5.33;;;;;9.16;41.74;101795.22;6316858;22;45415;-82
2022/03/20 04:19:32;;;;;;;;;10.00;8.33;;;;;9.24;41.40;101803.47;6288713;22;45583;-82
2022/03/20 04:21:58;;;;;;;;;4.33;4.33;;;;;9.23;41.79;101804.34;6288824;22;45396;-82
2022/03/20 04:24:24;;;;;;;;;10.00;10.00;;;;;9.18;41.61;101800.59;6315042;22;45735;-82
2022/03/20 04:26:49;;;;;;;;;11.33;9.00;;;;;9.19;42.61;101792.69;6316851;22;45699;-82
2022/03/20 04:29:15;;;;;;;;;7.33;7.00;;;;;9.26;41.60;101803.53;6288933;22;45413;-81
2022/03/20 04:31:40;;;;;;;;;6.33;6.33;;;;;9.25;41.37;101801.72;6289234;22;45815;-82
2022/03/20 04:34:06;;;;;;;;;5.67;5.33;;;;;9.26;41.85;101790.25;6288717;22;45351;-82
2022/03/20 04:36:34;;;;;;;;;9.00;7.00;;;;;9.40;41.56;101796.97;6288162;22;47344;-82
2022/03/20 04:39:01;;;;;;;;;7.00;7.00;;;;;9.42;41.43;101795.28;6287826;22;45432;-81
2022/03/20 04:41:27;;;;;;;;;10.00;7.67;;;;;9.47;41.43;101788.34;6287348;22;45446;-81
2022/03/20 04:43:54;;;;;;;;;6.00;5.67;;;;;9.48;41.26;101786.63;6287963;22;45515;-80
2022/03/20 04:46:20;;;;;;;;;10.00;10.00;;;;;9.37;41.49;101792.47;6286987;22;46896;-81
2022/03/20 04:59:43;;;;;;;;;12.33;10.33;;;;;9.35;41.68;101788.84;6320236;22;45469;-81
2022/03/20 05:02:08;;;;;;;;;8.33;8.33;;;;;9.29;42.62;101791.28;6319973;22;45376;-81
2022/03/20 05:04:33;;;;;;;;;11.00;11.00;;;;;9.27;42.69;101782.38;6318986;22;45330;-82
2022/03/20 05:06:59;;;;;;;;;8.67;8.67;;;;;9.23;42.36;101788.41;6290173;22;46820;-81
2022/03/20 05:18:16;;;;;;;;;11.33;10.33;;;;;9.38;42.67;101783.63;6318977;22;45630;-81
2022/03/20 05:20:43;;;;;;;;;9.67;9.67;;;;;9.32;42.60;101791.38;6316581;22;45367;-82
2022/03/20 05:23:09;;;;;;;;;8.00;8.00;;;;;9.26;43.33;101788.50;6316436;22;45719;-83
2022/03/20 05:25:35;;;;;;;;;7.33;5.33;;;;;9.17;42.98;101781.13;6288936;22;45483;-82
2022/03/20 05:28:02;;;;;;;;;8.00;8.00;;;;;9.10;42.60;101772.88;6288379;22;45353;-82
2022/03/20 05:30:28;;;;;;;;;9.67;9.67;;;;;9.10;42.73;101778.19;6288797;22;45659;-81
2022/03/20 05:32:53;;;;;;;;;9.67;8.33;;;;;9.08;43.66;101779.88;6316772;22;45646;-82
2022/03/20 05:35:18;;;;;;;;;14.00;11.33;;;;;9.01;44.28;101776.09;6316818;22;45336;-82
2022/03/20 05:37:46;;;;;;;;;11.67;10.33;;;;;9.05;43.41;101763.81;6289414;22;47233;-81
2022/03/20 05:40:14;;;;;;;;;7.33;7.33;;;;;9.09;43.04;101773.72;6285992;22;45498;-81
2022/03/20 05:42:39;;;;;;;;;7.00;7.00;;;;;9.02;43.35;101792.06;6314724;22;45373;-81
2022/03/20 05:45:06;;;;;;;;;11.00;6.67;;;;;9.02;43.29;101786.75;6288290;22;45349;-80
2022/03/20 05:47:32;;;;;;;;;7.67;6.33;;;;;9.10;43.82;101778.19;6314655;22;45955;-81
2022/03/20 05:50:02;;;;;;;;;11.33;10.33;;;;;9.08;43.85;101763.97;6313537;22;45294;-81
2022/03/20 05:52:31;;;;;;;;;9.67;9.33;;;;;8.92;44.35;101771.34;6288229;22;45447;-81
2022/03/20 05:54:57;;;;;;;;;8.00;7.00;;;;;8.92;44.08;101779.28;6287503;22;45429;-81
2022/03/20 06:00:16;;;;;;;;;10.00;9.33;;;;;9.01;43.37;101781.41;6314729;22;45353;-81
2022/03/20 06:02:50;;;;;;;;;9.33;7.00;;;;;8.91;43.91;101756.28;6314641;22;45351;-82
2022/03/20 06:05:16;;;;;;;;;10.67;9.67;;;;;8.97;43.99;101780.38;6287961;22;45456;-82
2022/03/20 06:07:52;;;;;;;;;6.50;6.00;;;;;9.02;43.59;101764.63;6314637;22;45404;-82
2022/03/20 06:10:19;;;;;;;;;11.00;5.67;;;;;9.06;43.31;101781.56;6286498;22;45464;-82
2022/03/20 06:12:45;;;;;;;;;6.67;6.67;;;;;8.99;43.91;101784.00;6285968;22;45631;-82
2022/03/20 06:15:12;;;;;;;;;10.00;8.33;;;;;8.98;43.88;101791.91;6285034;22;45733;-82
2022/03/20 06:17:45;;;;;;;;;7.00;7.00;;;;;9.03;44.18;101777.06;6312896;22;45861;-81
2022/03/20 06:20:14;;;;;;;;;10.67;7.00;;;;;9.00;44.62;101791.09;6312696;22;45732;-82
2022/03/20 06:22:39;;;;;;;;;10.67;9.00;;;;;8.93;43.82;101791.72;6312619;22;45364;-82
2022/03/20 06:25:08;;;;;;;;;10.00;7.00;;;;;8.99;44.84;101786.66;6285614;22;45659;-82
2022/03/20 06:27:48;;;;;;;;;9.67;9.00;;;;;9.13;44.18;101791.53;6314376;22;45394;-82
2022/03/20 06:30:14;;;;;;;;;10.33;9.33;;;;;8.98;44.44;101800.75;6283370;22;45470;-82
2022/03/20 06:32:41;;;;;;;;;10.67;10.33;;;;;9.01;44.30;101803.53;6286010;22;45434;-82
2022/03/20 06:35:09;;;;;;;;;7.00;7.00;;;;;9.01;44.32;101805.28;6315772;22;45624;-82
2022/03/20 06:37:39;;;;;;;;;12.67;11.00;;;;;9.18;43.95;101797.94;6314516;22;45700;-82
2022/03/20 06:40:06;;;;;;;;;11.67;10.00;;;;;9.15;44.13;101809.34;6314629;22;45432;-81
2022/03/20 06:42:33;;;;;;;;;14.33;11.00;;;;;9.28;43.83;101815.13;6286874;22;45376;-81
2022/03/20 06:45:00;;;;;;;;;10.00;10.00;;;;;9.20;44.45;101801.56;6285805;22;44852;-81
2022/03/20 06:47:26;;;;;;;;;11.33;10.67;;;;;9.15;44.30;101798.75;6286871;22;46750;-81
2022/03/20 06:49:53;;;;;;;;;11.00;10.00;;;;;9.21;44.04;101811.34;6287347;22;45398;-81
2022/03/20 06:52:22;;;;;;;;;11.33;10.33;;;;;9.29;44.28;101812.53;6315457;22;45310;-81
2022/03/20 06:54:49;;;;;;;;;10.67;10.67;;;;;9.28;44.00;101810.69;6291094;22;45236;-80
2022/03/20 06:57:19;;;;;;;;;10.33;10.00;;;;;9.48;44.04;101823.81;6319465;22;45472;-82
2022/03/20 06:59:46;;;;;;;;;13.33;11.67;;;;;9.45;43.92;101819.25;6291394;22;44883;-81
2022/03/20 07:02:12;;;;;;;;;14.00;8.67;;;;;9.44;43.43;101812.16;6292092;22;45840;-82
2022/03/20 07:04:37;;;;;;;;;11.67;10.00;;;;;9.51;43.44;101815.94;6317414;22;44810;-81
2022/03/20 07:07:43;;;;;;;;;11.33;11.33;;;;;9.90;43.31;101823.50;6290700;22;47784;-82
2022/03/20 07:10:09;;;;;;;;;13.00;10.00;;;;;9.80;43.28;101816.97;6291632;22;45799;-82
2022/03/20 07:12:35;;;;;;;;;15.33;8.67;;;;;9.82;43.04;101829.44;6291190;22;45372;-81
2022/03/20 07:15:00;;;;;;;;;11.33;11.33;;;;;9.87;42.75;101820.72;6317190;22;45550;-81
2022/03/20 07:17:28;;;;;;;;;11.33;11.33;;;;;10.12;42.92;101825.09;6290684;22;46730;-82
2022/03/20 07:19:54;;;;;;;;;12.00;12.00;;;;;10.09;42.71;101820.59;6289490;22;45618;-82
2022/03/20 07:22:20;;;;;;;;;11.00;11.00;;;;;10.17;42.19;101827.06;6318376;22;45333;-82
2022/03/20 07:24:46;;;;;;;;;13.67;11.33;;;;;10.21;42.31;101810.38;6313408;22;45430;-83
2022/03/20 07:30:40;;;;;;;;;15.33;13.33;;;;;10.36;42.22;101822.38;6309801;22;45716;-81
2022/03/20 07:33:06;;;;;;;;;16.33;15.00;;;;;10.15;42.56;101822.56;6314672;22;45390;-82
2022/03/20 07:35:32;;;;;;;;;16.67;16.67;;;;;10.17;42.89;101824.41;6286513;22;45485;-82
2022/03/20 07:37:57;;;;;;;;;17.33;11.67;;;;;10.21;42.68;101836.06;6288612;22;46789;-80
2022/03/20 07:40:23;;;;;;;;;24.00;18.00;;;;;10.17;42.57;101834.16;6288335;22;44769;-82
2022/03/20 07:42:50;;;;;;;;;17.33;16.00;;;;;10.25;42.78;101834.41;6315355;22;44881;-82
2022/03/20 07:45:15;;;;;;;;;21.33;20.33;;;;;10.14;42.67;101837.63;6315964;22;45525;-82
2022/03/20 07:47:41;;;;;;;;;19.67;16.33;;;;;10.26;42.76;101828.22;6287520;22;47239;-82
2022/03/20 07:50:08;;;;;;;;;22.00;16.33;;;;;10.35;42.23;101831.22;6316751;22;45365;-81
2022/03/20 07:52:35;;;;;;;;;17.00;14.67;;;;;10.39;42.64;101839.34;6316040;22;45395;-81
2022/03/20 07:55:03;;;;;;;;;16.33;16.33;;;;;10.58;42.15;101829.28;6289648;22;45623;-81
2022/03/20 07:57:31;;;;;;;;;19.33;17.67;;;;;10.54;42.50;101825.66;6289459;22;46908;-82
2022/03/20 07:59:58;;;;;;;;;21.00;20.33;;;;;10.70;42.33;101815.47;6316963;22;45763;-82
2022/03/20 08:02:23;;;;;;;;;26.00;21.33;;;;;10.82;42.15;101823.81;6317485;22;45357;-82
2022/03/20 08:04:51;;;;;;;;;25.00;21.00;;;;;10.83;42.01;101823.00;6289766;22;45598;-82
2022/03/20 08:07:21;;;;;;;;;26.00;22.33;;;;;10.87;42.05;101824.88;6290089;22;47320;-82
2022/03/20 08:09:46;;;;;;;;;25.33;20.33;;;;;10.71;41.94;101814.63;6287972;22;45503;-81
2022/03/20 08:12:12;;;;;;;;;20.00;20.00;;;;;10.72;42.30;101817.31;6286681;22;45693;-81
2022/03/20 08:14:39;;;;;;;;;17.00;16.00;;;;;10.81;42.29;101832.69;6286529;22;45331;-81
2022/03/20 08:17:07;;;;;;;;;23.33;20.00;;;;;10.76;42.36;101813.91;6283873;22;48303;-81
2022/03/20 08:19:34;;;;;;;;;22.33;21.00;;;;;10.95;42.17;101822.47;6284494;22;45353;-81
2022/03/20 08:22:03;;;;;;;;;22.00;22.00;;;;;10.83;42.30;101823.00;6285173;22;45512;-80
2022/03/20 08:24:28;;;;;;;;;26.00;21.67;;;;;10.76;42.71;101820.97;6287239;22;45314;-81
2022/03/20 08:26:54;;;;;;;;;20.33;16.33;;;;;10.73;42.66;101826.22;6287017;22;46733;-82
2022/03/20 08:29:20;;;;;;;;;24.00;22.00;;;;;10.64;42.18;101813.53;6287064;22;45629;-82
2022/03/20 08:31:47;;;;;;;;;26.00;25.33;;;;;10.73;42.69;101828.88;6314240;22;45286;-82
2022/03/20 08:34:14;;;;;;;;;37.33;29.33;;;;;10.76;42.39;101813.91;6315916;22;45436;-82
2022/03/20 08:36:41;;;;;;;;;26.67;26.67;;;;;10.88;42.44;101821.34;6287645;22;46789;-82
2022/03/20 08:39:07;;;;;;;;;25.67;22.00;;;;;10.88;42.19;101817.78;6286955;22;45365;-82
2022/03/20 08:41:33;;;;;;;;;25.33;21.33;;;;;10.97;42.37;101826.97;6285272;22;44842;-81
2022/03/20 08:43:59;;;;;;;;;25.67;22.67;;;;;11.17;42.05;101813.34;6284673;22;45300;-81
2022/03/20 08:46:24;;;;;;;;;30.00;22.67;;;;;11.26;41.78;101818.03;6285355;22;46527;-82
2022/03/20 08:48:50;;;;;;;;;25.33;23.33;;;;;11.29;42.00;101824.34;6284978;22;45311;-82
2022/03/20 08:51:15;;;;;;;;;31.33;26.67;;;;;11.36;41.77;101830.75;6314561;22;45722;-82
2022/03/20 08:53:42;;;;;;;;;28.00;26.00;;;;;11.53;41.67;101834.78;6315201;22;45608;-82
2022/03/20 08:56:08;;;;;;;;;26.67;23.33;;;;;11.46;41.38;101827.47;6318081;22;46099;-81
2022/03/20 08:58:33;;;;;;;;;23.00;16.67;;;;;11.54;41.56;101827.69;6289615;22;45615;-82
2022/03/20 09:00:59;;;;;;;;;31.67;28.67;;;;;11.67;41.49;101837.81;6289733;22;45487;-82
2022/03/20 09:03:30;;;;;;;;;27.33;26.00;;;;;11.82;40.81;101830.22;6290217;22;45454;-82
2022/03/20 09:05:57;;;;;;;;;28.67;25.33;;;;;11.71;40.94;101829.03;6289132;22;46633;-83
2022/03/20 09:08:23;;;;;;;;;30.00;27.00;;;;;11.67;41.14;101835.13;6288976;22;45488;-81
2022/03/20 09:10:50;;;;;;;;;24.33;24.33;;;;;11.77;40.79;101826.53;6290324;22;45440;-82
2022/03/20 09:13:16;;;;;;;;;32.33;28.00;;;;;11.67;40.68;101826.25;6317716;22;45417;-81
2022/03/20 09:15:41;;;;;;;;;29.67;28.00;;;;;11.70;40.67;101835.25;6288034;22;47625;-81
2022/03/20 09:18:59;;;;;;;;;28.33;25.00;;;;;11.96;40.93;101835.06;6288177;22;45289;-81
2022/03/20 09:21:26;;;;;;;;;28.67;26.00;;;;;11.81;41.02;101830.19;6289325;22;44750;-81
2022/03/20 09:23:51;;;;;;;;;26.33;25.67;;;;;11.88;40.85;101834.84;6320101;22;45400;-82
2022/03/20 09:26:17;;;;;;;;;28.00;27.67;;;;;11.92;40.91;101838.53;6290676;22;47026;-83
2022/03/20 09:28:46;;;;;;;;;24.00;24.00;;;;;12.04;40.48;101838.84;6289624;22;45385;-82
2022/03/20 09:31:13;;;;;;;;;29.67;28.00;;;;;11.93;40.67;101835.88;6318276;22;45258;-82
2022/03/20 09:33:40;;;;;;;;;24.00;22.00;;;;;11.96;40.95;101835.06;6317291;22;45402;-82
2022/03/20 09:36:06;;;;;;;;;27.67;25.00;;;;;12.09;40.59;101841.59;6316279;22;47792;-81
2022/03/20 09:38:33;;;;;;;;;31.67;24.00;;;;;12.26;40.14;101844.69;6289514;22;45697;-81
2022/03/20 09:41:03;;;;;;;;;32.25;30.00;;;;;12.31;40.04;101838.59;6316702;22;45494;-81
2022/03/20 09:43:31;;;;;;;;;26.67;24.00;;;;;12.19;39.96;101832.97;6289497;22;45577;-82
2022/03/20 09:45:57;;;;;;;;;31.33;25.00;;;;;12.20;39.61;101835.69;6287554;22;47106;-82
2022/03/20 09:48:22;;;;;;;;;30.00;29.67;;;;;12.25;40.01;101837.56;6288963;22;44855;-81
2022/03/20 09:50:49;;;;;;;;;30.67;25.33;;;;;12.45;39.10;101833.63;6288705;22;45381;-81
2022/03/20 09:53:15;;;;;;;;;30.00;26.67;;;;;12.32;38.82;101824.44;6287513;22;45429;-81
2022/03/20 09:55:40;;;;;;;;;31.33;29.00;;;;;12.41;39.27;101829.06;6286691;22;47092;-81
2022/03/20 09:58:07;;;;;;;;;25.33;24.67;;;;;12.49;38.87;101829.25;6314440;22;44806;-81
2022/03/20 10:00:33;;;;;;;;;32.00;27.50;;;;;12.56;38.55;101842.78;6286376;22;45490;-80
2022/03/20 10:03:17;;;;;;;;;24.67;21.00;;;;;12.71;38.80;101838.66;6316635;22;45366;-82
2022/03/20 10:05:43;;;;;;;;;31.00;27.00;;;;;12.62;38.78;101839.34;6286006;22;47088;-81
2022/03/20 10:08:16;;;;;;;;;36.25;34.00;;;;;12.68;38.86;101835.91;6314906;22;45334;-81
2022/03/20 10:10:42;;;;;;;;;34.00;31.25;;;;;12.71;38.92;101838.66;6315556;22;45293;-82
2022/03/20 10:13:12;;;;;;;;;29.67;26.33;;;;;12.96;38.93;101835.66;6287908;22;45314;-82
2022/03/20 10:15:43;;;;;;;;;22.33;22.33;;;;;13.05;37.52;101834.03;6316177;22;45361;-82
2022/03/20 10:18:19;;;;;;;;;28.50;27.00;;;;;13.10;37.76;101835.97;6315869;22;44717;-82
2022/03/20 10:20:58;;;;;;;;;32.00;26.33;;;;;13.06;36.78;101833.19;6315296;22;45398;-82
2022/03/20 10:23:31;;;;;;;;;32.50;31.00;;;;;13.01;37.42;101826.00;6315851;22;45362;-82
2022/03/20 10:25:57;;;;;;;;;29.33;23.33;;;;;12.96;37.28;101835.66;6285100;22;47593;-82
2022/03/20 10:28:23;;;;;;;;;33.33;26.00;;;;;13.05;37.66;101826.03;6284921;22;45325;-82
2022/03/20 10:31:03;;;;;;;;;29.75;25.25;;;;;13.38;37.51;101820.53;6284041;22;45377;-82
2022/03/20 10:33:29;;;;;;;;;18.67;17.00;;;;;13.25;37.67;101822.03;6284388;22;45713;-83
2022/03/20 10:36:14;;;;;;;;;26.00;24.67;;;;;13.56;36.94;101817.31;6284458;22;47214;-82
2022/03/20 10:38:42;;;;;;;;;27.33;23.00;;;;;13.54;36.08;101825.31;6312376;22;45293;-83
2022/03/20 10:41:21;;;;;;;;;27.00;25.67;;;;;13.63;35.37;101813.88;6315108;22;45461;-82
2022/03/20 10:43:49;;;;;;;;;30.67;27.67;;;;;13.59;35.97;101828.06;6286325;22;45706;-82
2022/03/20 10:46:22;;;;;;;;;28.00;23.67;;;;;13.64;35.92;101809.47;6286994;22;47065;-82
2022/03/20 10:48:50;;;;;;;;;24.33;19.00;;;;;13.63;35.16;101819.22;6286246;22;45309;-81
2022/03/20 10:51:37;;;;;;;;;25.33;24.67;;;;;13.77;34.41;101828.41;6286313;22;45744;-82
2022/03/20 10:54:14;;;;;;;;;24.33;21.33;;;;;13.64;33.24;101823.72;6288392;22;45501;-82
2022/03/20 10:56:57;;;;;;;;;25.67;21.33;;;;;13.70;32.08;101831.84;6288541;22;46678;-82
2022/03/20 10:59:24;;;;;;;;;24.33;24.33;;;;;13.43;32.40;101815.28;6288596;22;45516;-83
2022/03/20 11:01:51;;;;;;;;;27.00;27.00;;;;;13.35;32.88;101821.38;6317906;22;45310;-83
2022/03/20 11:04:18;;;;;;;;;20.67;19.33;;;;;13.42;32.30;101821.50;6288580;22;45516;-83
2022/03/20 11:10:11;;;;;;;;;14.67;14.00;;;;;13.52;33.68;101811.00;6316471;22;45371;-81
2022/03/20 11:12:40;;;;;;;;;26.00;22.33;;;;;13.64;32.11;101814.81;6290814;22;45408;-80
2022/03/20 11:15:07;;;;;;;;;24.00;23.00;;;;;13.56;33.30;101811.97;6291210;22;45475;-82
2022/03/20 11:17:44;;;;;;;;;22.33;22.33;;;;;13.83;33.89;101808.91;6294085;22;47380;-83
2022/03/20 11:20:14;;;;;;;;;26.33;25.33;;;;;13.93;33.78;101808.19;6289968;22;45237;-82
2022/03/20 11:22:48;;;;;;;;;21.33;19.67;;;;;14.07;33.03;101811.09;6317659;22;45376;-82
2022/03/20 11:25:20;;;;;;;;;15.67;15.33;;;;;13.97;32.63;101803.78;6290337;22;45310;-83
2022/03/20 11:27:50;;;;;;;;;25.00;19.67;;;;;13.95;33.27;101795.75;6289252;22;46855;-82
2022/03/20 11:30:19;;;;;;;;;25.33;24.00;;;;;13.97;33.16;101803.78;6290100;22;45390;-83
2022/03/20 11:32:46;;;;;;;;;20.33;19.00;;;;;14.05;33.12;101802.16;6290447;22;45391;-83
2022/03/20 11:35:12;;;;;;;;;23.67;21.33;;;;;14.06;33.36;101803.97;6290108;22;45813;-81
2022/03/20 11:37:44;;;;;;;;;26.00;23.00;;;;;14.26;32.35;101800.69;6310339;22;47826;-81
2022/03/20 11:40:25;;;;;;;;;25.67;21.67;;;;;14.29;32.58;101801.66;6285424;22;45294;-82
2022/03/20 11:43:15;;;;;;;;;30.67;24.33;;;;;14.29;31.47;101807.00;6286477;22;45344;-83
2022/03/20 11:45:41;;;;;;;;;26.33;25.00;;;;;14.08;32.65;101806.63;6314294;22;45649;-82
2022/03/20 11:48:16;;;;;;;;;23.67;22.67;;;;;14.27;32.09;101798.06;6313376;22;45329;-81
2022/03/20 11:54:05;;;;;;;;;22.33;22.33;;;;;14.23;31.63;101795.31;6311000;22;45363;-81
2022/03/20 11:56:30;;;;;;;;;21.33;19.00;;;;;14.12;31.22;101790.69;6286379;22;45580;-81
2022/03/20 11:58:56;;;;;;;;;21.00;20.67;;;;;14.12;31.46;101804.06;6285154;22;47581;-82
2022/03/20 12:01:21;;;;;;;;;20.33;17.67;;;;;14.11;30.59;101796.91;6286823;22;45291;-81
2022/03/20 12:04:11;;;;;;;;;18.67;16.00;;;;;14.28;31.27;101796.25;6287433;22;45705;-81
2022/03/20 12:06:57;;;;;;;;;25.67;19.00;;;;;14.28;31.27;101799.88;6285363;22;45330;-81
2022/03/20 12:09:56;;;;;;;;;28.00;20.67;;;;;14.28;30.82;101794.50;6310808;22;46926;-82
2022/03/20 12:12:44;;;;;;;;;20.33;19.67;;;;;14.30;29.87;101776.72;6313753;22;45546;-82
2022/03/20 12:15:11;;;;;;;;;21.33;18.33;;;;;14.21;30.22;101777.44;6313022;22;45378;-81
2022/03/20 12:18:04;;;;;;;;;19.00;15.67;;;;;14.45;31.16;101769.78;6286307;22;45531;-82